Time;durP1;ratioP1;P1;durP2;ratioP2;P2;SDS_P1;SDS_P2;PMS_P1;PMS_P2;Temp;Humidity;BMP_temperature;BMP_pressure;BME280_temperature;BME280_humidity;BME280_pressure;Samples;Min_cycle;Max_cycle;Signal;HPM_P1;HPM_P2
2023/10/15 00:00:50;;;;;;;6.73;2.50;;;10.10;99.90;;;;;;5019422;28;20026;-88
2023/10/15 00:03:16;;;;;;;8.20;2.47;;;10.10;99.90;;;;;;5018374;28;20045;-89
2023/10/15 00:05:42;;;;;;;5.73;2.17;;;10.10;99.90;;;;;;5018708;28;20048;-89
2023/10/15 00:08:07;;;;;;;7.30;2.60;;;10.10;99.90;;;;;;5018392;28;20484;-89
2023/10/15 00:10:34;;;;;;;9.43;2.33;;;10.20;99.90;;;;;;5019355;28;20091;-89
2023/10/15 00:13:00;;;;;;;9.57;2.30;;;10.20;99.90;;;;;;5016623;28;20030;-89
2023/10/15 00:15:29;;;;;;;9.17;2.80;;;10.10;99.90;;;;;;5017658;28;20033;-89
2023/10/15 00:17:59;;;;;;;7.43;2.37;;;10.10;99.90;;;;;;5018679;28;20029;-88
2023/10/15 00:20:27;;;;;;;11.10;2.50;;;10.10;99.90;;;;;;5018845;28;20029;-89
2023/10/15 00:22:53;;;;;;;8.37;2.80;;;10.00;99.90;;;;;;5018314;28;20788;-89
2023/10/15 00:25:21;;;;;;;6.17;2.27;;;10.00;99.90;;;;;;5018346;28;20044;-89
2023/10/15 00:27:57;;;;;;;8.90;2.57;;;9.90;99.90;;;;;;5018720;28;20036;-88
2023/10/15 00:30:31;;;;;;;;;;;9.80;99.90;;;;;;5019158;28;20113;-89
2023/10/15 00:32:57;;;;;;;5.97;1.83;;;9.80;99.90;;;;;;5017833;28;20708;-89
2023/10/15 00:35:25;;;;;;;9.90;2.30;;;9.90;99.90;;;;;;5017897;28;20025;-89
2023/10/15 00:37:57;;;;;;;7.17;2.60;;;9.80;99.90;;;;;;5018177;28;20080;-89
2023/10/15 00:40:24;;;;;;;11.53;2.33;;;9.80;99.90;;;;;;5018287;28;20037;-89
2023/10/15 00:42:50;;;;;;;8.03;2.00;;;9.80;99.90;;;;;;5020812;28;20389;-88
2023/10/15 00:45:18;;;;;;;8.27;2.13;;;9.80;99.90;;;;;;5020351;28;20025;-89
2023/10/15 00:48:00;;;;;;;10.77;2.53;;;9.80;99.90;;;;;;5024044;28;20045;-89
2023/10/15 00:50:31;;;;;;;7.27;1.97;;;9.80;99.90;;;;;;5039486;28;20017;-89
2023/10/15 00:53:03;;;;;;;6.67;2.13;;;9.80;99.90;;;;;;5048807;28;20026;-89
2023/10/15 00:55:29;;;;;;;9.17;2.10;;;9.80;99.90;;;;;;5051130;28;20017;-89
2023/10/15 00:57:56;;;;;;;7.87;2.50;;;9.80;99.90;;;;;;5020871;28;20108;-88
2023/10/15 01:00:47;;;;;;;7.23;2.37;;;9.70;99.90;;;;;;5017856;28;20036;-89
2023/10/15 01:03:14;;;;;;;11.33;2.70;;;9.70;99.90;;;;;;5017516;28;20042;-89
2023/10/15 01:05:52;;;;;;;9.10;2.33;;;9.70;99.90;;;;;;5016392;28;20034;-89
2023/10/15 01:08:18;;;;;;;6.93;2.33;;;9.70;99.90;;;;;;5017599;28;20451;-89
2023/10/15 01:10:43;;;;;;;6.53;1.97;;;9.60;99.90;;;;;;5018185;28;20033;-89
2023/10/15 01:13:21;;;;;;;6.80;2.20;;;9.60;99.90;;;;;;5017682;28;20510;-88
2023/10/15 01:15:51;;;;;;;8.37;2.30;;;9.60;99.90;;;;;;5021212;28;20497;-88
2023/10/15 01:18:17;;;;;;;7.30;2.43;;;9.60;99.90;;;;;;5020934;28;20135;-88
2023/10/15 01:20:43;;;;;;;8.13;2.37;;;9.50;99.90;;;;;;5019670;28;20030;-89
2023/10/15 01:23:28;;;;;;;6.37;2.10;;;9.50;99.90;;;;;;5017809;28;20442;-89
2023/10/15 01:25:57;;;;;;;8.48;2.50;;;9.40;99.90;;;;;;5018058;28;20785;-88
2023/10/15 01:28:34;;;;;;;7.00;2.50;;;9.40;99.90;;;;;;5016385;28;20079;-88
2023/10/15 01:31:04;;;;;;;7.03;2.43;;;9.30;99.90;;;;;;5016321;28;20052;-89
2023/10/15 01:33:30;;;;;;;7.00;1.90;;;9.30;99.90;;;;;;5015086;28;20033;-89
2023/10/15 01:36:06;;;;;;;6.63;2.37;;;9.20;99.90;;;;;;5017194;28;20026;-89
2023/10/15 01:38:33;;;;;;;7.53;2.53;;;9.20;99.90;;;;;;5016929;28;20105;-89
2023/10/15 01:41:03;;;;;;;5.43;2.00;;;9.20;99.90;;;;;;5017560;28;20160;-89
2023/10/15 01:43:32;;;;;;;5.27;2.40;;;9.10;99.90;;;;;;5016221;28;20041;-88
2023/10/15 01:45:58;;;;;;;9.67;3.23;;;9.10;99.90;;;;;;5017166;28;21453;-89
2023/10/15 01:48:24;;;;;;;8.70;2.13;;;9.10;99.90;;;;;;5016067;28;20080;-89
2023/10/15 01:50:51;;;;;;;6.70;1.90;;;9.10;99.90;;;;;;5018905;28;20038;-89
2023/10/15 01:53:23;;;;;;;8.97;2.30;;;9.10;99.90;;;;;;5021639;28;20365;-89
2023/10/15 01:55:59;;;;;;;10.03;2.20;;;9.00;99.90;;;;;;5020911;28;20113;-89
2023/10/15 01:58:30;;;;;;;6.50;2.27;;;9.00;99.90;;;;;;5020908;28;20026;-89
2023/10/15 02:01:20;;;;;;;7.47;2.40;;;9.00;99.90;;;;;;5020176;28;20129;-89
2023/10/15 02:03:49;;;;;;;9.60;1.97;;;9.00;99.90;;;;;;5018919;28;20175;-89
2023/10/15 02:06:19;;;;;;;9.67;2.10;;;9.00;99.90;;;;;;5019125;28;20764;-89
2023/10/15 02:08:46;;;;;;;10.13;2.33;;;9.00;99.90;;;;;;5017845;28;20037;-88
2023/10/15 02:11:21;;;;;;;6.10;2.17;;;9.00;99.90;;;;;;5019078;28;20033;-88
2023/10/15 02:13:47;;;;;;;7.07;2.10;;;9.00;99.90;;;;;;5020004;28;20254;-88
2023/10/15 02:16:25;;;;;;;10.90;2.23;;;9.00;99.90;;;;;;5000426;28;20033;-89
2023/10/15 02:18:51;;;;;;;8.17;2.00;;;9.00;99.90;;;;;;5018684;28;20065;-89
2023/10/15 02:21:17;;;;;;;5.83;2.10;;;9.00;99.90;;;;;;5019838;28;20395;-88
2023/10/15 02:23:49;;;;;;;7.27;2.07;;;9.00;99.90;;;;;;5018767;28;20029;-89
2023/10/15 02:26:23;;;;;;;8.07;2.23;;;9.00;99.90;;;;;;5019437;28;20124;-88
2023/10/15 02:28:53;;;;;;;9.23;3.00;;;9.00;99.90;;;;;;5019074;28;20073;-88
2023/10/15 02:31:22;;;;;;;8.20;2.20;;;8.90;99.90;;;;;;5019033;28;20033;-89
2023/10/15 02:33:48;;;;;;;8.70;2.30;;;8.90;99.90;;;;;;5018350;28;20025;-89
2023/10/15 02:36:17;;;;;;;8.60;1.97;;;8.90;99.90;;;;;;5018586;28;20033;-88
2023/10/15 02:38:53;;;;;;;10.00;2.20;;;8.90;99.90;;;;;;5020403;28;20037;-89
2023/10/15 02:41:30;;;;;;;5.80;2.20;;;8.90;99.90;;;;;;5020642;28;20033;-88
2023/10/15 02:43:56;;;;;;;5.27;2.00;;;8.90;99.90;;;;;;5020475;28;20052;-89
2023/10/15 02:46:25;;;;;;;7.43;2.07;;;8.90;99.90;;;;;;5021417;28;20397;-88
2023/10/15 02:48:53;;;;;;;11.33;2.30;;;8.90;99.90;;;;;;5023912;28;20076;-89
2023/10/15 02:51:23;;;;;;;5.23;2.00;;;8.90;99.90;;;;;;5023557;28;20032;-88
2023/10/15 02:54:18;;;;;;;7.43;2.00;;;8.80;99.90;;;;;;5020129;28;20043;-88
2023/10/15 02:56:38;;;;;;;6.57;2.00;;;8.80;99.90;;;;;;5020307;28;20462;-89
2023/10/15 02:59:03;;;;;;;10.40;2.13;;;8.80;99.90;;;;;;5020310;28;20030;-89
2023/10/15 03:01:29;;;;;;;6.67;1.97;;;8.70;99.90;;;;;;5018346;28;20030;-89
2023/10/15 03:03:55;;;;;;;6.50;2.00;;;8.80;99.90;;;;;;4983532;28;1052426;-89
2023/10/15 03:06:31;;;;;;;9.07;2.20;;;8.70;99.90;;;;;;5019515;28;20025;-89
2023/10/15 03:08:57;;;;;;;9.47;1.93;;;8.70;99.90;;;;;;5019984;28;21303;-89
2023/10/15 03:11:24;;;;;;;7.60;2.27;;;8.70;99.90;;;;;;5019853;28;20026;-88
2023/10/15 03:13:53;;;;;;;7.30;1.90;;;8.70;99.90;;;;;;5018633;28;20214;-89
2023/10/15 03:16:24;;;;;;;8.17;2.20;;;8.70;99.90;;;;;;5018723;28;20028;-88
2023/10/15 03:18:52;;;;;;;7.67;2.10;;;8.60;99.90;;;;;;5019514;28;20026;-89
2023/10/15 03:21:30;;;;;;;9.97;2.37;;;8.60;99.90;;;;;;5019460;28;20022;-88
2023/10/15 03:23:57;;;;;;;7.97;2.07;;;8.60;99.90;;;;;;5019949;28;20034;-89
2023/10/15 03:26:34;;;;;;;8.83;2.43;;;8.60;99.90;;;;;;5019115;28;20057;-89
2023/10/15 03:29:00;;;;;;;6.37;2.47;;;8.50;99.90;;;;;;5019447;28;20530;-89
2023/10/15 03:31:30;;;;;;;9.90;2.10;;;8.40;99.90;;;;;;5020106;28;20029;-89
2023/10/15 03:36:48;;;;;;;7.80;2.50;;;8.40;99.90;;;;;;5018985;28;20036;-89
2023/10/15 03:39:17;;;;;;;12.80;2.10;;;8.40;99.90;;;;;;5021156;28;20030;-89
2023/10/15 03:41:43;;;;;;;7.60;2.30;;;8.30;99.90;;;;;;5022432;28;20018;-89
2023/10/15 03:44:11;;;;;;;9.80;3.17;;;8.30;99.90;;;;;;5022590;28;20152;-88
2023/10/15 03:46:37;;;;;;;8.13;2.07;;;8.30;99.90;;;;;;5031433;28;20038;-89
2023/10/15 03:49:07;;;;;;;5.80;1.97;;;8.30;99.90;;;;;;5049499;28;20025;-88
2023/10/15 03:51:40;;;;;;;9.47;2.70;;;8.30;99.90;;;;;;5051984;28;20053;-89
2023/10/15 03:54:06;;;;;;;7.93;2.40;;;8.20;99.90;;;;;;5036950;28;20061;-89
2023/10/15 03:56:34;;;;;;;8.80;2.17;;;8.20;99.90;;;;;;5017676;28;20049;-89
2023/10/15 03:59:02;;;;;;;5.53;2.10;;;8.20;99.90;;;;;;5017081;28;20045;-89
2023/10/15 04:01:30;;;;;;;6.10;2.03;;;8.20;99.90;;;;;;5017582;28;20140;-89
2023/10/15 04:03:56;;;;;;;6.60;2.33;;;8.20;99.90;;;;;;5018108;28;20693;-89
2023/10/15 04:06:22;;;;;;;5.73;2.63;;;8.10;99.90;;;;;;5019789;28;20025;-89
2023/10/15 04:11:42;;;;;;;10.60;2.27;;;8.00;99.90;;;;;;5018783;28;20451;-89
2023/10/15 04:14:26;;;;;;;6.67;1.87;;;8.00;99.90;;;;;;5016713;28;20037;-89
2023/10/15 04:16:52;;;;;;;12.63;2.30;;;8.00;99.90;;;;;;5018656;28;20040;-89
2023/10/15 04:19:19;;;;;;;8.70;1.90;;;7.90;99.90;;;;;;5018416;28;20025;-88
2023/10/15 04:21:45;;;;;;;8.70;2.87;;;7.80;99.90;;;;;;5019408;28;20045;-89
2023/10/15 04:24:17;;;;;;;9.83;2.77;;;7.80;99.90;;;;;;5018056;28;20029;-89
2023/10/15 04:26:48;;;;;;;5.50;2.07;;;7.80;99.90;;;;;;5018071;28;20080;-89
2023/10/15 04:29:17;;;;;;;8.63;2.37;;;7.70;99.90;;;;;;5000414;28;20029;-89
2023/10/15 04:31:56;;;;;;;7.57;2.97;;;7.70;99.90;;;;;;5020112;28;20029;-89
2023/10/15 04:34:25;;;;;;;8.00;2.40;;;7.70;99.90;;;;;;5000682;28;20036;-89
2023/10/15 04:36:51;;;;;;;7.93;2.03;;;7.70;99.90;;;;;;5017883;28;20022;-88
2023/10/15 04:39:21;;;;;;;5.80;1.73;;;7.60;99.90;;;;;;5020178;28;20443;-88
2023/10/15 04:41:49;;;;;;;5.27;2.27;;;7.60;99.90;;;;;;5018102;28;20496;-89
2023/10/15 04:44:24;;;;;;;9.03;2.30;;;7.60;99.90;;;;;;5017687;28;20034;-88
2023/10/15 04:46:53;;;;;;;6.90;2.28;;;7.50;99.90;;;;;;5017591;28;20500;-88
2023/10/15 04:49:19;;;;;;;6.40;1.87;;;7.50;99.90;;;;;;5017479;28;20045;-89
2023/10/15 04:51:45;;;;;;;5.57;2.20;;;7.50;99.90;;;;;;5018200;28;20040;-89
2023/10/15 04:54:10;;;;;;;5.00;2.23;;;7.50;99.90;;;;;;5017269;28;20103;-88
2023/10/15 04:56:36;;;;;;;7.57;2.97;;;7.50;99.90;;;;;;5017795;28;20442;-88
2023/10/15 04:59:02;;;;;;;8.37;2.00;;;7.40;99.90;;;;;;5019375;28;20124;-89
2023/10/15 05:01:28;;;;;;;7.00;1.93;;;7.40;99.90;;;;;;5016083;28;20030;-89
2023/10/15 05:03:53;;;;;;;5.93;2.10;;;7.40;99.90;;;;;;5016640;28;20067;-89
2023/10/15 05:06:21;;;;;;;5.57;2.10;;;7.40;99.90;;;;;;5017621;28;20124;-89
2023/10/15 05:08:47;;;;;;;8.83;2.00;;;7.30;99.90;;;;;;5023293;28;20025;-88
2023/10/15 05:11:13;;;;;;;8.60;2.30;;;7.30;99.90;;;;;;5023384;28;20025;-88
2023/10/15 05:13:42;;;;;;;7.00;2.47;;;7.30;99.90;;;;;;5020223;28;20034;-88
2023/10/15 05:16:08;;;;;;;6.90;1.90;;;7.40;99.90;;;;;;5016554;28;20034;-88
2023/10/15 05:18:34;;;;;;;5.70;1.90;;;7.40;99.90;;;;;;5016766;28;20056;-88
2023/10/15 05:21:00;;;;;;;10.77;2.30;;;7.40;99.90;;;;;;5018443;28;20028;-88
2023/10/15 05:23:26;;;;;;;5.03;1.90;;;7.40;99.90;;;;;;5016939;28;20226;-88
2023/10/15 05:25:54;;;;;;;7.57;1.77;;;7.40;99.90;;;;;;5017404;28;20562;-88
2023/10/15 05:28:20;;;;;;;7.23;2.23;;;7.40;99.90;;;;;;5016259;28;20029;-88
2023/10/15 05:30:46;;;;;;;7.07;2.10;;;7.50;99.90;;;;;;5018742;28;20030;-88
2023/10/15 05:33:12;;;;;;;8.00;2.33;;;7.50;99.90;;;;;;5016232;28;20492;-88
2023/10/15 05:35:37;;;;;;;9.07;2.30;;;7.50;99.90;;;;;;5016092;28;20029;-89
2023/10/15 05:38:08;;;;;;;6.37;2.00;;;7.60;99.90;;;;;;5016799;28;20470;-89
2023/10/15 05:40:34;;;;;;;8.13;2.20;;;7.60;99.90;;;;;;5016741;28;20154;-89
2023/10/15 05:43:00;;;;;;;8.57;2.23;;;7.60;99.90;;;;;;5016815;28;20017;-89
2023/10/15 05:45:25;;;;;;;5.97;2.70;;;7.70;99.90;;;;;;5016311;28;20683;-89
2023/10/15 05:47:51;;;;;;;7.13;2.33;;;7.70;99.90;;;;;;5016570;28;20373;-89
2023/10/15 05:50:16;;;;;;;5.57;1.90;;;7.70;99.90;;;;;;5017269;28;20337;-89
2023/10/15 05:52:42;;;;;;;8.93;2.40;;;7.80;99.90;;;;;;5017172;28;20026;-89
2023/10/15 05:55:08;;;;;;;9.60;3.00;;;7.80;99.90;;;;;;5015231;28;20171;-89
2023/10/15 05:57:37;;;;;;;7.20;2.30;;;7.80;99.90;;;;;;5017352;28;20025;-89
2023/10/15 06:00:26;;;;;;;7.70;2.13;;;7.80;99.90;;;;;;4999118;28;20040;-90
2023/10/15 06:02:55;;;;;;;4.20;1.90;;;7.80;99.90;;;;;;5001975;28;20044;-89
2023/10/15 06:05:22;;;;;;;8.00;2.60;;;7.90;99.90;;;;;;5018027;28;20045;-89
2023/10/15 06:07:48;;;;;;;5.37;2.00;;;7.90;99.90;;;;;;5020189;28;20021;-89
2023/10/15 06:10:14;;;;;;;8.03;2.17;;;7.90;99.90;;;;;;5024316;28;20033;-90
2023/10/15 06:12:41;;;;;;;8.53;2.33;;;7.90;99.90;;;;;;5016304;28;20032;-89
2023/10/15 06:15:07;;;;;;;6.37;2.20;;;8.00;99.90;;;;;;5016005;28;20040;-89
2023/10/15 06:17:33;;;;;;;7.63;2.30;;;8.00;99.90;;;;;;5016569;28;20038;-89
2023/10/15 06:20:12;;;;;;;7.57;2.40;;;8.00;99.90;;;;;;5016160;28;20030;-90
2023/10/15 06:22:38;;;;;;;7.10;2.67;;;8.10;99.90;;;;;;5016023;28;20975;-89
2023/10/15 06:25:05;;;;;;;8.57;2.10;;;8.10;99.90;;;;;;5014487;28;20052;-91
2023/10/15 06:27:30;;;;;;;8.83;2.30;;;8.10;99.90;;;;;;5016632;28;20109;-89
2023/10/15 06:29:56;;;;;;;7.20;1.97;;;8.10;99.90;;;;;;5016359;28;20499;-89
2023/10/15 06:32:21;;;;;;;8.67;2.20;;;8.20;99.90;;;;;;5017240;28;20034;-90
2023/10/15 06:34:47;;;;;;;8.10;2.43;;;8.20;99.90;;;;;;4997008;28;20063;-87
2023/10/15 06:37:12;;;;;;;6.30;2.10;;;8.30;99.90;;;;;;5019300;28;20115;-87
2023/10/15 06:39:39;;;;;;;9.23;2.30;;;8.30;99.90;;;;;;5020205;28;20067;-86
2023/10/15 06:42:05;;;;;;;10.90;4.93;;;8.30;99.90;;;;;;5020643;28;20083;-89
2023/10/15 06:44:30;;;;;;;13.30;6.40;;;8.40;99.90;;;;;;5025344;28;20093;-90
2023/10/15 06:46:56;;;;;;;6.87;3.40;;;8.50;99.90;;;;;;5032166;28;20033;-90
2023/10/15 06:49:21;;;;;;;11.03;3.27;;;8.50;99.90;;;;;;5037549;28;20017;-89
2023/10/15 06:51:47;;;;;;;9.53;1.90;;;8.60;99.90;;;;;;5048193;28;20116;-88
2023/10/15 06:54:12;;;;;;;7.47;1.93;;;8.70;99.90;;;;;;5022629;28;20033;-89
2023/10/15 06:56:38;;;;;;;9.30;2.03;;;8.80;99.90;;;;;;5018412;28;20032;-90
2023/10/15 06:59:04;;;;;;;14.40;2.63;;;8.90;99.90;;;;;;5018953;28;20148;-88
2023/10/15 07:01:30;;;;;;;5.47;2.33;;;9.00;99.90;;;;;;5019351;28;20025;-89
2023/10/15 07:03:56;;;;;;;8.23;2.53;;;9.00;99.90;;;;;;5017488;28;20052;-91
2023/10/15 07:06:22;;;;;;;8.47;2.20;;;9.00;99.90;;;;;;5016828;28;20115;-88
2023/10/15 07:08:49;;;;;;;7.33;2.83;;;9.10;99.90;;;;;;5019017;28;20047;-90
2023/10/15 07:11:15;;;;;;;10.67;2.63;;;9.10;99.90;;;;;;5017580;28;20041;-91
2023/10/15 07:13:40;;;;;;;6.07;1.97;;;9.20;99.90;;;;;;5015502;28;20038;-90
2023/10/15 07:16:06;;;;;;;7.73;1.90;;;9.20;99.90;;;;;;5014533;28;20033;-89
2023/10/15 07:18:33;;;;;;;7.80;1.90;;;9.30;99.90;;;;;;5015115;28;20068;-89
2023/10/15 07:20:59;;;;;;;5.80;2.20;;;9.30;99.90;;;;;;5015256;28;20120;-89
2023/10/15 07:23:25;;;;;;;7.53;1.90;;;9.40;99.90;;;;;;5016103;28;20040;-89
2023/10/15 07:25:51;;;;;;;4.37;1.60;;;9.40;99.90;;;;;;5014849;28;20041;-88
2023/10/15 07:28:16;;;;;;;7.53;2.00;;;9.50;99.90;;;;;;5014649;28;20060;-90
2023/10/15 07:30:42;;;;;;;5.73;1.80;;;9.60;99.90;;;;;;5014815;28;20030;-89
2023/10/15 07:33:08;;;;;;;4.03;1.90;;;9.60;99.90;;;;;;5012913;28;20033;-90
2023/10/15 07:35:35;;;;;;;5.87;1.80;;;9.70;99.90;;;;;;5011086;28;20037;-88
2023/10/15 07:38:04;;;;;;;4.90;1.60;;;9.70;99.90;;;;;;5015339;28;20116;-89
2023/10/15 07:40:32;;;;;;;6.73;1.70;;;9.70;99.90;;;;;;5012226;28;20506;-89
2023/10/15 07:42:59;;;;;;;4.70;2.10;;;9.60;99.90;;;;;;5014509;28;20033;-91
2023/10/15 07:45:29;;;;;;;5.73;1.90;;;9.60;99.90;;;;;;5015509;28;20037;-83
2023/10/15 07:48:00;;;;;;;5.20;1.90;;;9.60;99.90;;;;;;5013186;28;20029;-89
2023/10/15 07:50:26;;;;;;;8.50;1.80;;;9.60;99.90;;;;;;5017790;28;21434;-89
2023/10/15 07:52:52;;;;;;;5.03;1.80;;;9.60;99.90;;;;;;5014264;28;20068;-88
2023/10/15 07:55:19;;;;;;;5.53;2.13;;;9.60;99.90;;;;;;5013954;28;20127;-89
2023/10/15 07:57:45;;;;;;;4.37;1.70;;;9.60;99.90;;;;;;5015050;28;20041;-87
2023/10/15 08:00:16;;;;;;;7.63;2.17;;;9.70;99.90;;;;;;5015402;28;20029;-83
2023/10/15 08:02:45;;;;;;;5.73;1.87;;;9.70;99.90;;;;;;5016337;28;20048;-91
2023/10/15 08:05:12;;;;;;;5.67;2.03;;;9.70;99.90;;;;;;5014974;28;20117;-83
2023/10/15 08:07:38;;;;;;;3.93;1.90;;;9.80;99.90;;;;;;5016746;28;20535;-83
2023/10/15 08:10:04;;;;;;;6.57;2.00;;;9.90;99.90;;;;;;5015306;28;20050;-82
2023/10/15 08:12:31;;;;;;;3.93;1.60;;;9.90;99.90;;;;;;5026647;28;20132;-82
2023/10/15 08:14:57;;;;;;;5.80;2.00;;;10.00;99.90;;;;;;5016944;28;20045;-82
2023/10/15 08:17:23;;;;;;;5.03;1.65;;;10.10;99.90;;;;;;5007931;28;21462;-86
2023/10/15 08:19:49;;;;;;;4.63;1.63;;;10.20;99.90;;;;;;5010431;28;20084;-87
2023/10/15 08:22:15;;;;;;;6.60;1.93;;;10.20;99.90;;;;;;5009486;28;20036;-87
2023/10/15 08:24:41;;;;;;;5.73;1.50;;;10.30;99.90;;;;;;5008649;28;21003;-86
2023/10/15 08:27:07;;;;;;;4.57;1.60;;;10.30;99.90;;;;;;5006327;28;20176;-85
2023/10/15 08:29:33;;;;;;;4.07;1.47;;;10.20;99.90;;;;;;5011607;28;20076;-86
2023/10/15 08:31:59;;;;;;;5.10;2.00;;;10.20;99.90;;;;;;5011801;28;20652;-87
2023/10/15 08:34:24;;;;;;;4.97;1.73;;;10.20;99.90;;;;;;5009860;28;20725;-87
2023/10/15 08:36:50;;;;;;;6.22;1.50;;;10.20;99.90;;;;;;5008338;28;20034;-87
2023/10/15 08:39:16;;;;;;;9.60;1.80;;;10.20;99.90;;;;;;5015940;28;20021;-87
2023/10/15 08:41:44;;;;;;;4.27;1.33;;;10.10;99.90;;;;;;5011139;28;20033;-85
2023/10/15 08:44:18;;;;;;;2.00;0.90;;;9.90;99.90;;;;;;5011207;28;20516;-84
2023/10/15 08:46:45;;;;;;;1.60;0.90;;;9.60;99.90;;;;;;5008784;28;20028;-80
2023/10/15 08:49:14;;;;;;;3.83;1.00;;;9.20;99.90;;;;;;5009003;28;20037;-81
2023/10/15 08:51:42;;;;;;;2.57;1.00;;;8.80;99.90;;;;;;5009035;28;20037;-84
2023/10/15 08:54:11;;;;;;;3.23;0.87;;;8.60;99.90;;;;;;5008939;28;20032;-85
2023/10/15 08:56:37;;;;;;;1.53;0.87;;;8.40;99.90;;;;;;5007415;28;20033;-85
2023/10/15 08:59:04;;;;;;;3.17;1.00;;;8.20;99.90;;;;;;5009470;28;20976;-84
2023/10/15 09:01:32;;;;;;;3.50;1.57;;;8.10;99.90;;;;;;5013470;28;20033;-83
2023/10/15 09:03:57;;;;;;;3.33;1.00;;;8.10;99.90;;;;;;5013735;28;20061;-85
2023/10/15 09:06:24;;;;;;;5.13;1.60;;;8.00;99.90;;;;;;5014624;28;20068;-85
2023/10/15 09:08:51;;;;;;;2.73;1.20;;;8.10;99.90;;;;;;5010612;28;20022;-84
2023/10/15 09:11:19;;;;;;;4.13;1.43;;;8.10;99.90;;;;;;5008489;28;20058;-85
2023/10/15 09:13:51;;;;;;;4.23;1.67;;;8.30;99.90;;;;;;5008541;28;20052;-84
2023/10/15 09:16:17;;;;;;;2.93;1.40;;;8.40;99.90;;;;;;5007887;28;20090;-85
2023/10/15 09:18:44;;;;;;;4.57;1.60;;;8.60;99.90;;;;;;5010118;28;20025;-85
2023/10/15 09:21:10;;;;;;;6.60;1.67;;;8.70;99.90;;;;;;5010576;28;20150;-84
2023/10/15 09:23:37;;;;;;;4.53;2.47;;;8.80;99.90;;;;;;5011583;28;20500;-84
2023/10/15 09:26:10;;;;;;;3.43;1.40;;;9.00;99.90;;;;;;5007260;28;20038;-83
2023/10/15 09:28:36;;;;;;;3.80;1.17;;;9.10;99.90;;;;;;5008399;28;20040;-84
2023/10/15 09:31:03;;;;;;;2.30;1.30;;;9.30;99.90;;;;;;5009713;28;20056;-84
2023/10/15 09:33:30;;;;;;;3.00;1.20;;;9.30;99.90;;;;;;5010358;28;20056;-84
2023/10/15 09:35:56;;;;;;;3.13;1.60;;;9.30;99.90;;;;;;5008344;28;20029;-84
2023/10/15 09:38:22;;;;;;;2.33;1.40;;;9.20;99.90;;;;;;5007444;28;20033;-84
2023/10/15 09:40:48;;;;;;;4.73;1.60;;;9.20;99.90;;;;;;5008422;28;20044;-84
2023/10/15 09:43:13;;;;;;;3.33;1.80;;;9.10;99.90;;;;;;5008429;28;20051;-84
2023/10/15 09:45:41;;;;;;;4.20;1.50;;;9.20;99.90;;;;;;5009555;28;20141;-85
2023/10/15 09:48:09;;;;;;;4.53;1.80;;;9.10;99.90;;;;;;5012071;28;20049;-84
2023/10/15 09:50:38;;;;;;;4.00;1.63;;;9.10;99.90;;;;;;5016497;28;20096;-84
2023/10/15 09:53:10;;;;;;;5.00;1.60;;;9.10;99.90;;;;;;5000137;28;20029;-84
2023/10/15 09:55:40;;;;;;;5.57;1.80;;;9.20;99.90;;;;;;5007256;28;20037;-84
2023/10/15 09:58:09;;;;;;;5.03;1.63;;;9.20;99.90;;;;;;5009596;28;20037;-84
2023/10/15 10:00:59;;;;;;;4.63;1.77;;;9.20;99.90;;;;;;5011222;28;20038;-84
2023/10/15 10:03:29;;;;;;;4.07;2.17;;;9.30;99.90;;;;;;5007906;28;20034;-83
2023/10/15 10:06:31;;;;;;;5.10;1.57;;;9.30;99.90;;;;;;5008253;28;20025;-83
2023/10/15 10:09:21;;;;;;;4.57;1.50;;;9.40;99.90;;;;;;5014058;28;20025;-88
2023/10/15 10:12:11;;;;;;;5.50;1.90;;;9.50;99.90;;;;;;5014533;28;20530;-82
2023/10/15 10:15:01;;;;;;;2.83;1.30;;;9.60;99.90;;;;;;5017674;28;20121;-82
2023/10/15 10:17:28;;;;;;;2.53;1.50;;;9.90;99.90;;;;;;5017932;28;20029;-81
2023/10/15 10:19:55;;;;;;;4.60;1.97;;;10.10;99.90;;;;;;5019711;28;20053;-82
2023/10/15 10:22:29;;;;;;;2.83;1.30;;;10.30;99.90;;;;;;5017850;28;20034;-82
2023/10/15 10:24:58;;;;;;;6.33;1.60;;;10.40;99.90;;;;;;5017738;28;20033;-79
2023/10/15 10:27:25;;;;;;;3.07;1.40;;;10.40;99.90;;;;;;5021509;28;20071;-81
2023/10/15 10:29:52;;;;;;;5.27;1.70;;;10.40;99.90;;;;;;5019862;28;20030;-82
2023/10/15 10:32:19;;;;;;;4.73;1.50;;;10.40;99.90;;;;;;5018906;28;20021;-82
2023/10/15 10:34:45;;;;;;;3.27;1.60;;;10.40;99.90;;;;;;5020338;28;20056;-81
2023/10/15 10:37:22;;;;;;;5.53;1.60;;;10.40;99.90;;;;;;5019285;28;20033;-82
2023/10/15 10:39:48;;;;;;;4.07;1.60;;;10.40;99.90;;;;;;5019748;28;20074;-83
2023/10/15 10:42:26;;;;;;;3.33;1.43;;;10.50;99.90;;;;;;5020555;28;20030;-82
2023/10/15 10:44:56;;;;;;;3.17;1.63;;;10.50;99.90;;;;;;5019556;28;20096;-83
2023/10/15 10:47:29;;;;;;;6.13;1.87;;;10.40;99.90;;;;;;5016823;28;20803;-83
2023/10/15 10:50:00;;;;;;;5.43;1.60;;;10.50;99.90;;;;;;5016099;28;20165;-83
2023/10/15 10:52:36;;;;;;;6.40;1.90;;;10.40;99.90;;;;;;5015913;28;20040;-87
2023/10/15 10:55:31;;;;;;;3.63;1.67;;;10.40;99.90;;;;;;5015228;28;20033;-84
2023/10/15 10:58:00;;;;;;;6.47;1.70;;;10.30;99.90;;;;;;5014656;28;20037;-83
2023/10/15 11:00:30;;;;;;;4.97;1.97;;;10.20;99.90;;;;;;5017402;28;20037;-84
2023/10/15 11:02:58;;;;;;;3.93;1.50;;;10.10;99.90;;;;;;5019538;28;20068;-83
2023/10/15 11:05:24;;;;;;;6.03;1.70;;;10.10;99.90;;;;;;5018444;28;20100;-83
2023/10/15 11:07:50;;;;;;;4.57;1.70;;;10.00;99.90;;;;;;5017571;28;20025;-83
2023/10/15 11:10:17;;;;;;;7.37;1.97;;;10.00;99.90;;;;;;5018721;28;20518;-84
2023/10/15 11:12:46;;;;;;;4.57;1.50;;;9.90;99.90;;;;;;5016090;28;20610;-83
2023/10/15 11:15:14;;;;;;;6.67;1.70;;;9.90;99.90;;;;;;5017167;28;20022;-82
2023/10/15 11:17:56;;;;;;;7.17;1.80;;;9.80;99.90;;;;;;5018845;28;20753;-82
2023/10/15 11:20:25;;;;;;;8.37;1.87;;;9.70;99.90;;;;;;5018169;28;20038;-84
2023/10/15 11:22:51;;;;;;;4.53;1.43;;;9.50;99.90;;;;;;5016866;28;20055;-83
2023/10/15 11:25:19;;;;;;;3.27;1.43;;;9.30;99.90;;;;;;5015078;28;20156;-84
2023/10/15 11:27:44;;;;;;;4.83;1.60;;;9.20;99.90;;;;;;5015055;28;20043;-84
2023/10/15 11:30:10;;;;;;;3.33;1.50;;;9.10;99.90;;;;;;5015084;28;20026;-84
2023/10/15 11:32:37;;;;;;;5.20;1.70;;;9.10;99.90;;;;;;5015924;28;20558;-83
2023/10/15 11:35:07;;;;;;;6.93;1.50;;;9.10;99.90;;;;;;5016027;28;20045;-84
2023/10/15 11:37:35;;;;;;;3.17;1.60;;;9.10;99.90;;;;;;5016069;28;20100;-80
2023/10/15 11:40:00;;;;;;;4.33;1.77;;;9.10;99.90;;;;;;5014695;28;20038;-83
2023/10/15 11:42:28;;;;;;;4.77;1.67;;;9.10;99.90;;;;;;5015535;28;20049;-84
2023/10/15 11:44:56;;;;;;;3.53;1.50;;;9.10;99.90;;;;;;5015400;28;20029;-84
2023/10/15 11:47:24;;;;;;;4.13;1.60;;;9.10;99.90;;;;;;5016416;28;20083;-84
2023/10/15 11:49:50;;;;;;;4.63;1.53;;;9.10;99.90;;;;;;5016616;28;20026;-84
2023/10/15 11:52:18;;;;;;;5.77;2.00;;;9.20;99.90;;;;;;5014807;28;20760;-83
2023/10/15 11:54:49;;;;;;;3.70;1.83;;;9.20;99.90;;;;;;5013210;28;20048;-84
2023/10/15 11:57:21;;;;;;;5.60;2.00;;;9.30;99.90;;;;;;5015218;28;20065;-83
2023/10/15 11:59:48;;;;;;;7.43;2.13;;;9.30;99.90;;;;;;5017467;28;20037;-83
2023/10/15 12:02:14;;;;;;;4.67;1.80;;;9.30;99.90;;;;;;5016685;28;20037;-83
2023/10/15 12:04:40;;;;;;;6.93;2.30;;;9.30;99.90;;;;;;5014864;28;20025;-82
2023/10/15 12:07:11;;;;;;;5.43;2.53;;;9.40;99.90;;;;;;5017180;28;20033;-83
2023/10/15 12:09:44;;;;;;;4.38;1.70;;;9.40;99.90;;;;;;5018458;28;20046;-82
2023/10/15 12:12:11;;;;;;;4.10;2.00;;;9.40;99.90;;;;;;5017769;28;20037;-82
2023/10/15 12:14:37;;;;;;;6.23;2.17;;;9.40;99.90;;;;;;5015211;28;20041;-82
2023/10/15 12:17:04;;;;;;;7.00;1.53;;;9.40;99.90;;;;;;5016761;28;20026;-82
2023/10/15 12:19:30;;;;;;;6.37;2.43;;;9.40;99.90;;;;;;5015488;28;20159;-82
2023/10/15 12:21:58;;;;;;;7.40;2.37;;;9.40;99.90;;;;;;5016886;28;20030;-82
2023/10/15 12:24:25;;;;;;;5.43;2.17;;;9.40;99.90;;;;;;5015458;28;20021;-82
2023/10/15 12:26:50;;;;;;;4.73;1.77;;;9.40;99.90;;;;;;5016255;28;20030;-82
2023/10/15 12:29:17;;;;;;;6.43;2.10;;;9.40;99.90;;;;;;5014842;28;20022;-81
2023/10/15 12:31:43;;;;;;;4.33;1.77;;;9.50;99.90;;;;;;5014337;28;20064;-82
2023/10/15 12:34:11;;;;;;;5.20;1.70;;;9.60;99.90;;;;;;5011779;28;20034;-82
2023/10/15 12:36:37;;;;;;;6.37;2.20;;;9.70;99.90;;;;;;5016555;28;20030;-82
2023/10/15 12:39:05;;;;;;;6.27;1.83;;;9.70;99.90;;;;;;5016056;28;21229;-82
2023/10/15 12:41:31;;;;;;;4.63;1.90;;;9.80;99.90;;;;;;5014310;28;20136;-82
2023/10/15 12:44:00;;;;;;;5.00;2.00;;;9.80;99.90;;;;;;5016999;28;21374;-82
2023/10/15 12:46:29;;;;;;;4.80;2.17;;;9.80;99.90;;;;;;5015759;28;20676;-82
2023/10/15 12:48:56;;;;;;;7.07;2.20;;;9.90;99.90;;;;;;5018706;28;20029;-82
2023/10/15 12:51:22;;;;;;;7.57;2.23;;;10.10;99.90;;;;;;5018296;28;20036;-81
2023/10/15 12:53:47;;;;;;;6.63;2.03;;;10.30;99.90;;;;;;5018184;28;20041;-81
2023/10/15 12:56:13;;;;;;;5.33;2.20;;;10.40;99.90;;;;;;5018016;28;20123;-82
2023/10/15 12:58:38;;;;;;;5.90;1.90;;;10.60;99.90;;;;;;5019340;28;20500;-81
2023/10/15 13:01:05;;;;;;;5.80;2.00;;;10.60;99.90;;;;;;5017203;28;20795;-84
2023/10/15 13:03:32;;;;;;;4.60;1.70;;;10.40;99.90;;;;;;5016768;28;20041;-82
2023/10/15 13:05:59;;;;;;;4.13;1.43;;;10.00;99.90;;;;;;5013177;28;20139;-83
2023/10/15 13:08:24;;;;;;;3.53;1.40;;;9.60;99.90;;;;;;5013219;28;20492;-82